Rawalpindi, Pakistan
Current Conditions -  °F | °C
As of 2:00 AM on Saturday 01 Nov 2014 (Local Time) from OPRN Reporting Station
Haze Haze  
Wind Chill: 59°   Ceiling: Unl
Heat Index: 59°   Visibility: 2.5mi
Dew Point: 52°   Wind: 5mph
Humidity: 77%   Direction: 50°NE
Pressure: NA   Gusts: NA
Location:  33.6°N, 73.04°E
Report Text: OPRN 312100Z 05004KT 4000 HZ FEW100 15/11 Q1017.3/30.04
Loading
Personal Weather Stations






























Interactive Weather Map
Tropical Storm Tracking
New forecast layout! Learn more

10-Day Weather Forecast

Advertisements
Track Severe Weather on mobile